createdAt,value
2022-09-01T00:00:28.482Z,986.49
2022-09-01T00:01:28.454Z,986.50
2022-09-01T00:02:28.501Z,986.50
2022-09-01T00:03:28.426Z,986.52
2022-09-01T00:04:28.573Z,986.56
2022-09-01T00:05:28.404Z,986.57
2022-09-01T00:06:28.414Z,986.58
2022-09-01T00:07:28.406Z,986.57
2022-09-01T00:08:28.387Z,986.61
2022-09-01T00:09:28.377Z,986.51
2022-09-01T00:10:28.362Z,986.57
2022-09-01T00:11:28.359Z,986.58
2022-09-01T00:12:28.337Z,986.57
2022-09-01T00:13:28.328Z,986.52
2022-09-01T00:14:30.746Z,986.59
2022-09-01T00:15:28.331Z,986.56
2022-09-01T00:16:28.298Z,986.55
2022-09-01T00:17:28.278Z,986.66
2022-09-01T00:18:28.290Z,986.57
2022-09-01T00:19:28.260Z,986.55
2022-09-01T00:20:28.249Z,986.55
2022-09-01T00:21:28.231Z,986.62
2022-09-01T00:22:28.210Z,986.63
2022-09-01T00:23:28.221Z,986.62
2022-09-01T00:24:28.191Z,986.60
2022-09-01T00:25:28.193Z,986.57
2022-09-01T00:26:28.172Z,986.60
2022-09-01T00:27:30.820Z,986.63
2022-09-01T00:28:30.300Z,986.61
2022-09-01T00:29:28.171Z,986.58
2022-09-01T00:30:28.130Z,986.65
2022-09-01T00:31:28.217Z,986.58
2022-09-01T00:32:28.116Z,986.61
2022-09-01T00:33:28.123Z,986.56
2022-09-01T00:34:28.118Z,986.62
2022-09-01T00:35:28.084Z,986.57
2022-09-01T00:36:28.104Z,986.57
2022-09-01T00:37:28.073Z,986.60
2022-09-01T00:38:28.063Z,986.63
2022-09-01T00:39:28.041Z,986.60
2022-09-01T00:40:28.105Z,986.54
2022-09-01T00:41:28.045Z,986.59
2022-09-01T00:42:28.005Z,986.58
2022-09-01T00:43:28.033Z,986.56
2022-09-01T00:44:29.805Z,986.61
2022-09-01T00:45:27.993Z,986.61
2022-09-01T00:46:29.232Z,986.56
2022-09-01T00:47:27.975Z,986.57
2022-09-01T00:48:27.954Z,986.52
2022-09-01T00:49:27.937Z,986.46
2022-09-01T00:50:27.927Z,986.47
2022-09-01T00:51:27.927Z,986.50
2022-09-01T00:52:27.898Z,986.52
2022-09-01T00:53:27.895Z,986.56
2022-09-01T00:54:27.887Z,986.51
2022-09-01T00:55:27.888Z,986.52
2022-09-01T00:56:27.868Z,986.50
2022-09-01T00:57:27.848Z,986.50
2022-09-01T00:58:27.828Z,986.55
2022-09-01T00:59:27.842Z,986.49
2022-09-01T01:00:27.828Z,986.45
2022-09-01T01:01:27.889Z,986.42
2022-09-01T01:02:27.829Z,986.48
2022-09-01T01:03:27.801Z,986.50
2022-09-01T01:04:27.783Z,986.47
2022-09-01T01:05:27.781Z,986.45
2022-09-01T01:06:27.751Z,986.44
2022-09-01T01:07:27.751Z,986.47
2022-09-01T01:08:27.729Z,986.48
2022-09-01T01:09:27.725Z,986.45
2022-09-01T01:10:27.722Z,986.49
2022-09-01T01:11:27.712Z,986.45
2022-09-01T01:12:27.703Z,986.45
2022-09-01T01:13:27.710Z,986.46
2022-09-01T01:14:27.663Z,986.49
2022-09-01T01:15:27.663Z,986.56
2022-09-01T01:16:27.685Z,986.54
2022-09-01T01:17:27.642Z,986.63
2022-09-01T01:18:27.643Z,986.55
2022-09-01T01:19:27.614Z,986.50
2022-09-01T01:20:27.604Z,986.57
2022-09-01T01:21:27.583Z,986.50
2022-09-01T01:22:27.596Z,986.50
2022-09-01T01:23:27.575Z,986.51
2022-09-01T01:24:27.569Z,986.51
2022-09-01T01:25:27.569Z,986.56
2022-09-01T01:26:27.546Z,986.52
2022-09-01T01:27:27.525Z,986.52
2022-09-01T01:28:27.533Z,986.56
2022-09-01T01:29:27.517Z,986.53
2022-09-01T01:30:27.639Z,986.55
2022-09-01T01:31:27.509Z,986.56
2022-09-01T01:32:27.486Z,986.57
2022-09-01T01:33:27.471Z,986.58
2022-09-01T01:34:27.478Z,986.56
2022-09-01T01:35:27.436Z,986.52
2022-09-01T01:36:27.470Z,986.56
2022-09-01T01:37:27.418Z,986.53
2022-09-01T01:38:27.411Z,986.57
2022-09-01T01:39:27.408Z,986.50
2022-09-01T01:40:27.431Z,986.49
2022-09-01T01:41:27.396Z,986.55
2022-09-01T01:42:27.368Z,986.57
2022-09-01T01:43:27.358Z,986.51
2022-09-01T01:44:27.360Z,986.60
2022-09-01T01:45:27.359Z,986.56
2022-09-01T01:46:27.391Z,986.58
2022-09-01T01:47:27.322Z,986.56
2022-09-01T01:48:27.301Z,986.57
2022-09-01T01:49:27.300Z,986.49
2022-09-01T01:50:27.300Z,986.58
2022-09-01T01:51:27.263Z,986.51
2022-09-01T01:52:27.291Z,986.52
2022-09-01T01:53:27.252Z,986.50
2022-09-01T01:54:27.240Z,986.52
2022-09-01T01:55:27.241Z,986.58
2022-09-01T01:56:27.222Z,986.57
2022-09-01T01:57:27.222Z,986.50
2022-09-01T01:58:27.206Z,986.56
2022-09-01T01:59:27.204Z,986.54
2022-09-01T02:00:30.578Z,986.55
2022-09-01T02:01:27.184Z,986.53
2022-09-01T02:02:27.175Z,986.61
2022-09-01T02:03:27.163Z,986.59
2022-09-01T02:04:27.134Z,986.62
2022-09-01T02:05:27.115Z,986.62
2022-09-01T02:06:27.138Z,986.55
2022-09-01T02:07:27.104Z,986.62
2022-09-01T02:08:27.115Z,986.63
2022-09-01T02:09:27.085Z,986.60
2022-09-01T02:10:27.109Z,986.60
2022-09-01T02:11:27.046Z,986.61
2022-09-01T02:12:27.057Z,986.61
2022-09-01T02:13:27.036Z,986.61
2022-09-01T02:14:27.038Z,986.61
2022-09-01T02:15:27.020Z,986.59
2022-09-01T02:16:27.067Z,986.62
2022-09-01T02:17:26.987Z,986.63
2022-09-01T02:18:26.987Z,986.62
2022-09-01T02:19:26.977Z,986.62
2022-09-01T02:20:26.966Z,986.59
2022-09-01T02:21:26.981Z,986.60
2022-09-01T02:22:26.948Z,986.58
2022-09-01T02:23:26.937Z,986.58
2022-09-01T02:24:26.948Z,986.58
2022-09-01T02:25:26.944Z,986.56
2022-09-01T02:26:26.918Z,986.58
2022-09-01T02:27:26.902Z,986.67
2022-09-01T02:28:26.910Z,986.62
2022-09-01T02:29:26.899Z,986.57
2022-09-01T02:30:26.881Z,986.55
2022-09-01T02:31:26.840Z,986.56
2022-09-01T02:32:26.850Z,986.60
2022-09-01T02:33:26.831Z,986.61
2022-09-01T02:34:26.824Z,986.58
2022-09-01T02:35:26.824Z,986.61
2022-09-01T02:36:26.800Z,986.61
2022-09-01T02:37:26.809Z,986.59
2022-09-01T02:38:26.772Z,986.60
2022-09-01T02:39:26.772Z,986.61
2022-09-01T02:40:26.794Z,986.54
2022-09-01T02:41:26.732Z,986.56
2022-09-01T02:42:26.754Z,986.63
2022-09-01T02:43:26.724Z,986.60
2022-09-01T02:44:26.713Z,986.55
2022-09-01T02:45:26.722Z,986.56
2022-09-01T02:46:26.703Z,986.58
2022-09-01T02:47:26.687Z,986.58
2022-09-01T02:48:26.664Z,986.56
2022-09-01T02:49:26.664Z,986.55
2022-09-01T02:50:26.684Z,986.55
2022-09-01T02:51:26.634Z,986.55
2022-09-01T02:52:26.720Z,986.57
2022-09-01T02:53:26.606Z,986.55
2022-09-01T02:54:26.625Z,986.65
2022-09-01T02:55:26.594Z,986.62
2022-09-01T02:56:26.595Z,986.64
2022-09-01T02:57:26.576Z,986.62
2022-09-01T02:58:26.585Z,986.56
2022-09-01T02:59:26.537Z,986.59
2022-09-01T03:00:26.548Z,986.54
2022-09-01T03:01:26.586Z,986.55
2022-09-01T03:02:26.527Z,986.52
2022-09-01T03:03:26.526Z,986.52
2022-09-01T03:04:26.581Z,986.56
2022-09-01T03:05:26.477Z,986.47
2022-09-01T03:06:26.467Z,986.49
2022-09-01T03:07:26.457Z,986.51
2022-09-01T03:08:26.469Z,986.57
2022-09-01T03:09:26.458Z,986.58
2022-09-01T03:10:26.428Z,986.54
2022-09-01T03:11:26.439Z,986.54
2022-09-01T03:12:26.409Z,986.54
2022-09-01T03:13:26.400Z,986.51
2022-09-01T03:14:26.398Z,986.55
2022-09-01T03:15:26.370Z,986.49
2022-09-01T03:16:26.473Z,986.55
2022-09-01T03:17:26.350Z,986.50
2022-09-01T03:18:26.352Z,986.52
2022-09-01T03:19:26.331Z,986.52
2022-09-01T03:20:26.331Z,986.51
2022-09-01T03:21:26.332Z,986.49
2022-09-01T03:22:26.323Z,986.52
2022-09-01T03:23:26.282Z,986.50
2022-09-01T03:24:26.302Z,986.52
2022-09-01T03:25:26.282Z,986.53
2022-09-01T03:26:26.282Z,986.54
2022-09-01T03:27:26.276Z,986.49
2022-09-01T03:28:26.262Z,986.54
2022-09-01T03:29:26.223Z,986.52
2022-09-01T03:30:26.225Z,986.55
2022-09-01T03:31:26.236Z,986.56
2022-09-01T03:32:26.217Z,986.52
2022-09-01T03:33:26.193Z,986.55
2022-09-01T03:34:26.873Z,986.53
2022-09-01T03:35:26.334Z,986.53
2022-09-01T03:36:26.178Z,986.52
2022-09-01T03:37:26.144Z,986.58
2022-09-01T03:38:26.852Z,986.53
2022-09-01T03:39:26.154Z,986.57
2022-09-01T03:40:26.170Z,986.59
2022-09-01T03:41:26.130Z,986.58
2022-09-01T03:42:26.113Z,986.56
2022-09-01T03:43:26.117Z,986.56
2022-09-01T03:44:26.096Z,986.56
2022-09-01T03:45:26.113Z,986.58
2022-09-01T03:46:26.056Z,986.60
2022-09-01T03:47:26.058Z,986.51
2022-09-01T03:48:26.047Z,986.56
2022-09-01T03:49:26.038Z,986.57
2022-09-01T03:50:26.047Z,986.56
2022-09-01T03:51:25.988Z,986.59
2022-09-01T03:52:26.007Z,986.54
2022-09-01T03:53:25.998Z,986.57
2022-09-01T03:54:25.973Z,986.51
2022-09-01T03:55:25.979Z,986.55
2022-09-01T03:56:25.928Z,986.55
2022-09-01T03:57:25.969Z,986.55
2022-09-01T03:58:26.911Z,986.55
2022-09-01T03:59:25.958Z,986.54
2022-09-01T04:00:25.959Z,986.52
2022-09-01T04:01:25.973Z,986.55
2022-09-01T04:02:25.959Z,986.56
2022-09-01T04:03:29.132Z,986.50
2022-09-01T04:04:26.932Z,986.50
2022-09-01T04:05:25.912Z,986.56
2022-09-01T04:06:25.832Z,986.59
2022-09-01T04:07:28.312Z,986.56
2022-09-01T04:08:25.935Z,986.54
2022-09-01T04:09:25.841Z,986.58
2022-09-01T04:10:25.840Z,986.56
2022-09-01T04:11:25.794Z,986.59
2022-09-01T04:12:25.788Z,986.58
2022-09-01T04:13:25.799Z,986.57
2022-09-01T04:14:25.792Z,986.57
2022-09-01T04:15:25.745Z,986.59
2022-09-01T04:16:25.859Z,986.56
2022-09-01T04:17:30.381Z,986.61
2022-09-01T04:18:25.706Z,986.59
2022-09-01T04:19:25.813Z,986.61
2022-09-01T04:20:25.717Z,986.54
2022-09-01T04:21:26.744Z,986.53
2022-09-01T04:22:25.706Z,986.56
2022-09-01T04:23:25.655Z,986.61
2022-09-01T04:24:25.668Z,986.56
2022-09-01T04:25:25.668Z,986.57
2022-09-01T04:26:25.627Z,986.55
2022-09-01T04:27:25.634Z,986.61
2022-09-01T04:28:25.606Z,986.61
2022-09-01T04:29:26.667Z,986.62
2022-09-01T04:30:25.586Z,986.63
2022-09-01T04:31:27.943Z,986.63
2022-09-01T04:32:25.724Z,986.66
2022-09-01T04:33:26.266Z,986.66
2022-09-01T04:34:25.599Z,986.62
2022-09-01T04:35:26.237Z,986.63
2022-09-01T04:36:25.527Z,986.66
2022-09-01T04:37:26.207Z,986.64
2022-09-01T04:38:25.508Z,986.65
2022-09-01T04:39:26.528Z,986.63
2022-09-01T04:40:25.554Z,986.63
2022-09-01T04:41:26.262Z,986.69
2022-09-01T04:42:25.577Z,986.69
2022-09-01T04:43:25.559Z,986.69
2022-09-01T04:44:25.469Z,986.70
2022-09-01T04:45:25.502Z,986.65
2022-09-01T04:46:25.412Z,986.65
2022-09-01T04:47:25.422Z,986.65
2022-09-01T04:48:25.409Z,986.66
2022-09-01T04:49:25.407Z,986.66
2022-09-01T04:50:25.371Z,986.63
2022-09-01T04:51:25.348Z,986.69
2022-09-01T04:52:25.383Z,986.68
2022-09-01T04:53:27.628Z,986.65
2022-09-01T04:54:25.353Z,986.64
2022-09-01T04:55:25.331Z,986.70
2022-09-01T04:56:25.292Z,986.67
2022-09-01T04:57:25.313Z,986.63
2022-09-01T04:58:25.406Z,986.63
2022-09-01T04:59:25.272Z,986.64
2022-09-01T05:00:25.367Z,986.66
2022-09-01T05:01:25.295Z,986.60
2022-09-01T05:02:25.274Z,986.65
2022-09-01T05:03:25.285Z,986.70
2022-09-01T05:04:25.205Z,986.61
2022-09-01T05:05:25.204Z,986.64
2022-09-01T05:06:25.230Z,986.65
2022-09-01T05:07:25.175Z,986.74
2022-09-01T05:08:25.380Z,986.63
2022-09-01T05:09:25.203Z,986.70
2022-09-01T05:10:25.165Z,986.64
2022-09-01T05:11:25.243Z,986.66
2022-09-01T05:12:25.134Z,986.67
2022-09-01T05:13:25.114Z,986.69
2022-09-01T05:14:25.123Z,986.68
2022-09-01T05:15:25.139Z,986.67
2022-09-01T05:16:25.703Z,986.70
2022-09-01T05:17:25.126Z,986.69
2022-09-01T05:18:25.077Z,986.72
2022-09-01T05:19:25.066Z,986.74
2022-09-01T05:20:25.047Z,986.72
2022-09-01T05:21:25.030Z,986.68
2022-09-01T05:22:25.124Z,986.69
2022-09-01T05:23:25.007Z,986.75
2022-09-01T05:24:25.006Z,986.79
2022-09-01T05:25:25.018Z,986.77
2022-09-01T05:26:25.031Z,986.74
2022-09-01T05:27:24.992Z,986.74
2022-09-01T05:28:24.967Z,986.81
2022-09-01T05:29:24.957Z,986.76
2022-09-01T05:30:24.933Z,986.84
2022-09-01T05:31:24.982Z,986.77
2022-09-01T05:32:24.913Z,986.81
2022-09-01T05:33:24.898Z,986.78
2022-09-01T05:34:24.946Z,986.81
2022-09-01T05:35:25.731Z,986.77
2022-09-01T05:36:25.901Z,986.78
2022-09-01T05:37:24.887Z,986.78
2022-09-01T05:38:24.830Z,986.85
2022-09-01T05:39:24.935Z,986.80
2022-09-01T05:40:24.875Z,986.82
2022-09-01T05:41:24.844Z,986.81
2022-09-01T05:42:24.822Z,986.77
2022-09-01T05:43:24.902Z,986.78
2022-09-01T05:44:24.776Z,986.82
2022-09-01T05:45:24.790Z,986.77
2022-09-01T05:46:24.845Z,986.80
2022-09-01T05:47:24.910Z,986.75
2022-09-01T05:48:24.744Z,986.80
2022-09-01T05:49:24.767Z,986.77
2022-09-01T05:50:24.767Z,986.80
2022-09-01T05:51:43.271Z,986.77
2022-09-01T05:52:25.723Z,986.79
2022-09-01T05:53:24.674Z,986.79
2022-09-01T05:54:24.709Z,986.75
2022-09-01T05:55:24.689Z,986.75
2022-09-01T05:56:24.653Z,986.81
2022-09-01T05:57:34.297Z,986.84
2022-09-01T05:58:25.815Z,986.79
2022-09-01T05:59:25.837Z,986.76
2022-09-01T06:00:24.605Z,986.79
2022-09-01T06:01:24.674Z,986.80
2022-09-01T06:02:25.222Z,986.70
2022-09-01T06:03:24.996Z,986.72
2022-09-01T06:04:24.605Z,986.74
2022-09-01T06:05:24.596Z,986.68
2022-09-01T06:06:24.578Z,986.71
2022-09-01T06:07:25.660Z,986.76
2022-09-01T06:08:24.575Z,986.76
2022-09-01T06:09:24.507Z,986.74
2022-09-01T06:10:24.809Z,986.71
2022-09-01T06:11:24.490Z,986.73
2022-09-01T06:12:24.497Z,986.74
2022-09-01T06:13:27.412Z,986.76
2022-09-01T06:14:24.458Z,986.74
2022-09-01T06:15:24.468Z,986.74
2022-09-01T06:16:24.502Z,986.77
2022-09-01T06:17:24.458Z,986.78
2022-09-01T06:18:24.410Z,986.75
2022-09-01T06:19:24.419Z,986.78
2022-09-01T06:20:24.450Z,986.75
2022-09-01T06:21:24.719Z,986.78
2022-09-01T06:22:24.360Z,986.77
2022-09-01T06:23:24.411Z,986.71
2022-09-01T06:24:24.339Z,986.72
2022-09-01T06:25:24.356Z,986.72
2022-09-01T06:26:24.361Z,986.76
2022-09-01T06:27:24.334Z,986.70
2022-09-01T06:28:24.370Z,986.77
2022-09-01T06:29:24.312Z,986.74
2022-09-01T06:30:24.716Z,986.75
2022-09-01T06:31:24.304Z,986.76
2022-09-01T06:32:24.274Z,986.70
2022-09-01T06:33:24.297Z,986.64
2022-09-01T06:34:24.253Z,986.78
2022-09-01T06:35:24.252Z,986.71
2022-09-01T06:36:24.225Z,986.72
2022-09-01T06:37:24.226Z,986.75
2022-09-01T06:38:24.233Z,986.68
2022-09-01T06:39:24.215Z,986.70
2022-09-01T06:40:24.268Z,986.72
2022-09-01T06:41:24.179Z,986.75
2022-09-01T06:42:24.171Z,986.71
2022-09-01T06:43:24.224Z,986.72
2022-09-01T06:44:24.163Z,986.74
2022-09-01T06:45:24.127Z,986.73
2022-09-01T06:46:24.155Z,986.76
2022-09-01T06:47:24.105Z,986.72
2022-09-01T06:48:24.124Z,986.72
2022-09-01T06:49:24.076Z,986.77
2022-09-01T06:51:25.117Z,986.75
2022-09-01T06:52:24.117Z,986.75
2022-09-01T06:53:39.409Z,986.76
2022-09-01T06:54:25.039Z,986.75
2022-09-01T06:55:24.049Z,986.77
2022-09-01T06:56:24.072Z,986.77
2022-09-01T06:58:25.064Z,986.80
2022-09-01T06:59:23.979Z,986.81
2022-09-01T07:00:24.031Z,986.80
2022-09-01T07:01:24.119Z,986.86
2022-09-01T07:02:26.629Z,986.82
2022-09-01T07:03:23.962Z,986.83
2022-09-01T07:04:25.225Z,986.84
2022-09-01T07:08:24.882Z,986.74
2022-09-01T07:09:47.633Z,986.79
2022-09-01T07:10:25.031Z,986.77
2022-09-01T07:12:08.850Z,986.76
2022-09-01T07:12:25.980Z,986.80
2022-09-01T07:13:23.823Z,986.81
2022-09-01T07:14:23.811Z,986.85
2022-09-01T07:16:34.057Z,986.83
2022-09-01T07:17:24.835Z,986.91
2022-09-01T07:18:24.017Z,986.85
2022-09-01T07:19:48.391Z,986.88
2022-09-01T07:20:25.302Z,986.87
2022-09-01T07:21:41.963Z,986.92
2022-09-01T07:23:03.518Z,986.84
2022-09-01T07:23:24.787Z,986.88
2022-09-01T07:24:29.383Z,986.94
2022-09-01T07:26:26.478Z,986.92
2022-09-01T07:27:25.210Z,986.88
2022-09-01T07:28:25.398Z,986.90
2022-09-01T07:29:23.656Z,986.93
2022-09-01T07:30:24.247Z,986.94
2022-09-01T07:34:40.282Z,986.94
2022-09-01T07:35:25.003Z,986.94
2022-09-01T07:36:26.908Z,986.95
2022-09-01T07:42:30.449Z,986.91
2022-09-01T07:43:27.289Z,986.88
2022-09-01T07:44:24.515Z,986.91
2022-09-01T07:45:27.294Z,986.87
2022-09-01T07:46:39.094Z,986.91
2022-09-01T07:49:49.239Z,987.02
2022-09-01T07:50:39.764Z,986.97
2022-09-01T07:51:39.849Z,986.96
2022-09-01T07:52:24.420Z,987.00
2022-09-01T07:53:23.412Z,987.00
2022-09-01T07:54:23.411Z,987.01
2022-09-01T07:55:23.381Z,987.01
2022-09-01T07:56:23.379Z,987.06
2022-09-01T07:57:23.361Z,987.11
2022-09-01T07:58:23.656Z,987.00
2022-09-01T07:59:23.356Z,987.01
2022-09-01T08:00:23.331Z,986.96
2022-09-01T08:01:24.432Z,986.97
2022-09-01T08:02:23.344Z,986.98
2022-09-01T08:03:23.695Z,987.00
2022-09-01T08:04:23.345Z,987.02
2022-09-01T08:05:23.287Z,987.03
2022-09-01T08:06:23.286Z,986.99
2022-09-01T08:07:23.255Z,986.98
2022-09-01T08:08:27.924Z,986.96
2022-09-01T08:09:37.075Z,987.01
2022-09-01T08:10:24.226Z,986.98
2022-09-01T08:11:40.063Z,986.97
2022-09-01T08:12:28.922Z,986.99
2022-09-01T08:13:24.276Z,987.05
2022-09-01T08:14:23.250Z,986.99
2022-09-01T08:15:41.342Z,987.05
2022-09-01T08:16:24.211Z,987.03
2022-09-01T08:18:24.249Z,987.06
2022-09-01T08:19:23.157Z,987.10
2022-09-01T08:20:23.238Z,987.09
2022-09-01T08:21:23.097Z,987.11
2022-09-01T08:22:23.151Z,987.07
2022-09-01T08:23:23.078Z,987.07
2022-09-01T08:24:23.070Z,987.11
2022-09-01T08:25:25.011Z,987.13
2022-09-01T08:26:23.039Z,987.15
2022-09-01T08:27:23.040Z,987.18
2022-09-01T08:28:26.873Z,987.19
2022-09-01T08:29:23.101Z,987.15
2022-09-01T08:30:23.040Z,987.12
2022-09-01T08:31:23.026Z,987.08
2022-09-01T08:32:23.024Z,987.12
2022-09-01T08:33:23.092Z,987.06
2022-09-01T08:34:22.954Z,987.07
2022-09-01T08:35:22.940Z,987.06
2022-09-01T08:36:24.757Z,987.10
2022-09-01T08:37:22.933Z,987.11
2022-09-01T08:38:23.121Z,987.12
2022-09-01T08:39:22.961Z,987.03
2022-09-01T08:40:22.967Z,987.09
2022-09-01T08:41:28.579Z,987.07
2022-09-01T08:42:23.908Z,987.13
2022-09-01T08:43:23.006Z,987.14
2022-09-01T08:44:22.885Z,987.05
2022-09-01T08:45:22.859Z,987.10
2022-09-01T08:46:22.922Z,987.08
2022-09-01T08:47:39.355Z,987.11
2022-09-01T08:49:25.778Z,987.11
2022-09-01T08:50:22.804Z,987.06
2022-09-01T08:51:22.797Z,987.10
2022-09-01T08:52:22.854Z,987.07
2022-09-01T08:53:22.769Z,987.08
2022-09-01T08:54:29.862Z,987.04
2022-09-01T08:55:23.759Z,987.06
2022-09-01T08:56:22.733Z,987.05
2022-09-01T08:57:22.776Z,987.12
2022-09-01T08:58:22.874Z,987.09
2022-09-01T08:59:22.801Z,987.02
2022-09-01T09:00:22.757Z,987.00
2022-09-01T09:01:22.688Z,987.01
2022-09-01T09:02:22.767Z,987.07
2022-09-01T09:03:22.678Z,987.06
2022-09-01T09:04:22.679Z,987.08
2022-09-01T09:05:22.632Z,987.02
2022-09-01T09:06:22.621Z,987.07
2022-09-01T09:07:22.643Z,987.06
2022-09-01T09:08:22.591Z,987.06
2022-09-01T09:09:32.374Z,987.05
2022-09-01T09:10:24.048Z,987.08
2022-09-01T09:11:22.598Z,987.09
2022-09-01T09:12:22.587Z,987.15
2022-09-01T09:13:22.563Z,987.14
2022-09-01T09:14:22.878Z,987.16
2022-09-01T09:15:22.622Z,987.16
2022-09-01T09:16:22.603Z,987.08
2022-09-01T09:17:22.539Z,987.08
2022-09-01T09:18:39.625Z,987.09
2022-09-01T09:19:23.558Z,987.13
2022-09-01T09:20:22.536Z,987.13
2022-09-01T09:21:22.472Z,987.12
2022-09-01T09:22:22.513Z,987.12
2022-09-01T09:23:22.660Z,987.11
2022-09-01T09:24:22.826Z,987.13
2022-09-01T09:25:22.437Z,987.16
2022-09-01T09:26:22.505Z,987.13
2022-09-01T09:27:22.433Z,987.06
2022-09-01T09:28:22.388Z,987.11
2022-09-01T09:29:23.170Z,987.02
2022-09-01T09:30:22.373Z,987.02
2022-09-01T09:31:22.411Z,987.06
2022-09-01T09:32:22.863Z,987.09
2022-09-01T09:33:47.547Z,987.03
2022-09-01T09:34:23.339Z,987.09
2022-09-01T09:35:22.324Z,987.09
2022-09-01T09:36:25.320Z,987.06
2022-09-01T09:37:22.337Z,987.07
2022-09-01T09:38:22.642Z,987.04
2022-09-01T09:39:22.251Z,987.06
2022-09-01T09:40:22.293Z,987.10
2022-09-01T09:41:26.955Z,987.12
2022-09-01T09:42:23.263Z,987.04
2022-09-01T09:43:22.495Z,987.06
2022-09-01T09:44:23.237Z,987.04
2022-09-01T09:45:22.202Z,987.10
2022-09-01T09:46:24.758Z,987.08
2022-09-01T09:47:42.748Z,987.07
2022-09-01T09:48:23.158Z,987.06
2022-09-01T09:49:34.708Z,987.06
2022-09-01T09:50:23.158Z,987.02
2022-09-01T09:51:22.125Z,987.05
2022-09-01T09:52:22.127Z,987.04
2022-09-01T09:53:22.194Z,987.08
2022-09-01T09:54:22.116Z,987.03
2022-09-01T09:55:22.239Z,987.04
2022-09-01T09:56:22.096Z,987.03
2022-09-01T09:57:22.158Z,986.97
2022-09-01T09:58:22.109Z,987.05
2022-09-01T09:59:39.558Z,986.92
2022-09-01T10:00:24.501Z,986.96
2022-09-01T10:01:22.052Z,986.95
2022-09-01T10:02:22.030Z,986.88
2022-09-01T10:03:23.199Z,986.94
2022-09-01T10:04:22.108Z,986.98
2022-09-01T10:05:22.009Z,986.93
2022-09-01T10:06:22.002Z,986.90
2022-09-01T10:07:21.993Z,986.85
2022-09-01T10:08:21.965Z,986.81
2022-09-01T10:09:21.961Z,986.83
2022-09-01T10:10:21.980Z,986.80
2022-09-01T10:11:21.946Z,986.82
2022-09-01T10:12:21.937Z,986.78
2022-09-01T10:13:22.058Z,986.89
2022-09-01T10:14:35.299Z,986.83
2022-09-01T10:15:22.993Z,986.89
2022-09-01T10:16:22.244Z,986.87
2022-09-01T10:17:22.665Z,986.85
2022-09-01T10:18:28.706Z,986.88
2022-09-01T10:19:22.845Z,986.89
2022-09-01T10:20:21.854Z,986.89
2022-09-01T10:21:21.835Z,986.85
2022-09-01T10:22:21.837Z,986.81
2022-09-01T10:23:21.832Z,986.88
2022-09-01T10:24:25.872Z,986.90
2022-09-01T10:25:22.775Z,986.82
2022-09-01T10:26:21.773Z,986.82
2022-09-01T10:27:22.293Z,986.79
2022-09-01T10:28:23.191Z,986.83
2022-09-01T10:29:21.769Z,986.87
2022-09-01T10:30:21.835Z,986.80
2022-09-01T10:31:21.788Z,986.80
2022-09-01T10:32:35.151Z,986.82
2022-09-01T10:33:22.741Z,986.80
2022-09-01T10:34:21.716Z,986.83
2022-09-01T10:35:21.776Z,986.84
2022-09-01T10:36:24.667Z,986.82
2022-09-01T10:37:22.811Z,986.81
2022-09-01T10:38:21.714Z,986.79
2022-09-01T10:39:22.175Z,986.81
2022-09-01T10:40:30.413Z,986.77
2022-09-01T10:41:22.680Z,986.79
2022-09-01T10:42:21.620Z,986.77
2022-09-01T10:43:21.592Z,986.80
2022-09-01T10:44:21.589Z,986.77
2022-09-01T10:45:21.571Z,986.78
2022-09-01T10:46:26.055Z,986.78
2022-09-01T10:47:21.945Z,986.76
2022-09-01T10:48:51.815Z,986.74
2022-09-01T10:49:25.277Z,986.75
2022-09-01T10:50:22.616Z,986.78
2022-09-01T10:51:22.545Z,986.75
2022-09-01T10:52:28.508Z,986.76
2022-09-01T10:53:26.879Z,986.74
2022-09-01T10:54:21.475Z,986.75
2022-09-01T10:55:24.981Z,986.69
2022-09-01T10:56:28.352Z,986.68
2022-09-01T10:57:27.035Z,986.67
2022-09-01T10:59:43.580Z,986.73
2022-09-01T11:00:37.866Z,986.66
2022-09-01T11:01:47.159Z,986.63
2022-09-01T11:02:23.524Z,986.63
2022-09-01T11:03:47.783Z,986.62
2022-09-01T11:04:22.423Z,986.56
2022-09-01T11:05:21.455Z,986.60
2022-09-01T11:06:21.371Z,986.59
2022-09-01T11:07:33.498Z,986.57
2022-09-01T11:08:22.310Z,986.58
2022-09-01T11:09:21.334Z,986.56
2022-09-01T11:10:36.553Z,986.59
2022-09-01T11:11:22.293Z,986.61
2022-09-01T11:12:29.227Z,986.57
2022-09-01T11:13:22.271Z,986.59
2022-09-01T11:14:22.297Z,986.56
2022-09-01T11:15:21.261Z,986.57
2022-09-01T11:16:45.742Z,986.53
2022-09-01T11:17:22.283Z,986.52
2022-09-01T11:18:21.548Z,986.45
2022-09-01T11:19:21.251Z,986.54
2022-09-01T11:20:21.214Z,986.55
2022-09-01T11:21:21.193Z,986.48
2022-09-01T11:22:21.191Z,986.53
2022-09-01T11:23:21.175Z,986.47
2022-09-01T11:24:21.195Z,986.51
2022-09-01T11:25:21.177Z,986.40
2022-09-01T11:26:21.189Z,986.49
2022-09-01T11:27:21.157Z,986.50
2022-09-01T11:28:21.259Z,986.45
2022-09-01T11:29:21.097Z,986.40
2022-09-01T11:30:21.102Z,986.46
2022-09-01T11:31:21.114Z,986.45
2022-09-01T11:32:21.402Z,986.42
2022-09-01T11:33:21.077Z,986.41
2022-09-01T11:34:21.122Z,986.40
2022-09-01T11:35:21.049Z,986.38
2022-09-01T11:36:21.078Z,986.36
2022-09-01T11:37:21.030Z,986.33
2022-09-01T11:38:21.105Z,986.28
2022-09-01T11:39:21.109Z,986.31
2022-09-01T11:40:21.053Z,986.27
2022-09-01T11:41:20.981Z,986.24
2022-09-01T11:42:20.971Z,986.25
2022-09-01T11:43:21.075Z,986.23
2022-09-01T11:44:20.951Z,986.26
2022-09-01T11:45:22.140Z,986.18
2022-09-01T11:46:21.037Z,986.16
2022-09-01T11:47:20.939Z,986.18
2022-09-01T11:48:20.912Z,986.16
2022-09-01T11:49:20.895Z,986.16
2022-09-01T11:50:20.956Z,986.24
2022-09-01T11:51:20.886Z,986.21
2022-09-01T11:52:20.865Z,986.12
2022-09-01T11:53:20.926Z,986.14
2022-09-01T11:54:23.370Z,986.16
2022-09-01T11:55:20.903Z,986.16
2022-09-01T11:56:20.841Z,986.10
2022-09-01T11:57:20.828Z,986.13
2022-09-01T11:58:20.808Z,986.21
2022-09-01T11:59:20.770Z,986.20
2022-09-01T12:00:20.818Z,986.08
2022-09-01T12:01:20.766Z,986.10
2022-09-01T12:02:20.821Z,986.11
2022-09-01T12:03:21.251Z,986.06
2022-09-01T12:04:20.727Z,986.06
2022-09-01T12:05:20.780Z,986.03
2022-09-01T12:06:20.720Z,986.04
2022-09-01T12:07:20.770Z,986.01
2022-09-01T12:08:24.041Z,986.00
2022-09-01T12:09:20.671Z,985.98
2022-09-01T12:10:20.671Z,985.96
2022-09-01T12:11:20.692Z,986.06
2022-09-01T12:12:20.643Z,986.03
2022-09-01T12:13:20.725Z,986.03
2022-09-01T12:14:20.640Z,986.04
2022-09-01T12:15:20.657Z,985.96
2022-09-01T12:16:20.647Z,985.96
2022-09-01T12:17:20.595Z,985.91
2022-09-01T12:18:20.595Z,985.91
2022-09-01T12:19:20.618Z,985.84
2022-09-01T12:20:21.797Z,985.84
2022-09-01T12:21:20.565Z,985.91
2022-09-01T12:22:20.565Z,985.84
2022-09-01T12:23:20.722Z,985.83
2022-09-01T12:24:20.543Z,985.76
2022-09-01T12:25:20.534Z,985.80
2022-09-01T12:26:20.578Z,985.82
2022-09-01T12:27:20.528Z,985.80
2022-09-01T12:28:20.498Z,985.73
2022-09-01T12:29:20.492Z,985.76
2022-09-01T12:30:20.538Z,985.76
2022-09-01T12:31:20.552Z,985.71
2022-09-01T12:32:20.473Z,985.74
2022-09-01T12:33:24.261Z,985.68
2022-09-01T12:34:20.433Z,985.68
2022-09-01T12:35:20.441Z,985.61
2022-09-01T12:36:20.403Z,985.62
2022-09-01T12:37:20.413Z,985.65
2022-09-01T12:38:20.517Z,985.68
2022-09-01T12:39:20.385Z,985.67
2022-09-01T12:40:20.551Z,985.66
2022-09-01T12:41:20.428Z,985.61
2022-09-01T12:42:20.728Z,985.50
2022-09-01T12:43:20.581Z,985.61
2022-09-01T12:44:20.379Z,985.63
2022-09-01T12:45:20.395Z,985.51
2022-09-01T12:46:20.384Z,985.54
2022-09-01T12:47:20.386Z,985.53
2022-09-01T12:48:20.398Z,985.48